sensor_id;sensor_type;location;lat;lon;timestamp;temperature;humidity
5938;DHT22;2994;51.220;4.412;2023-06-01T00:00:49;19.33;58.07
5938;DHT22;2994;51.220;4.412;2023-06-01T00:03:15;19.31;58.13
5938;DHT22;2994;51.220;4.412;2023-06-01T00:05:40;19.29;58.36
5938;DHT22;2994;51.220;4.412;2023-06-01T00:08:06;19.26;58.28
5938;DHT22;2994;51.220;4.412;2023-06-01T00:10:32;19.21;58.19
5938;DHT22;2994;51.220;4.412;2023-06-01T00:12:58;19.18;58.39
5938;DHT22;2994;51.220;4.412;2023-06-01T00:15:23;19.14;58.44
5938;DHT22;2994;51.220;4.412;2023-06-01T00:17:49;19.09;58.46
5938;DHT22;2994;51.220;4.412;2023-06-01T00:20:17;19.06;58.71
5938;DHT22;2994;51.220;4.412;2023-06-01T00:22:43;18.96;58.86
5938;DHT22;2994;51.220;4.412;2023-06-01T00:25:09;18.91;59.06
5938;DHT22;2994;51.220;4.412;2023-06-01T00:27:35;18.91;58.99
5938;DHT22;2994;51.220;4.412;2023-06-01T00:30:01;18.91;58.77
5938;DHT22;2994;51.220;4.412;2023-06-01T00:32:26;18.82;58.87
5938;DHT22;2994;51.220;4.412;2023-06-01T00:34:52;18.81;58.99
5938;DHT22;2994;51.220;4.412;2023-06-01T00:37:17;18.74;59.20
5938;DHT22;2994;51.220;4.412;2023-06-01T00:39:43;18.69;59.08
5938;DHT22;2994;51.220;4.412;2023-06-01T00:42:08;18.66;59.10
5938;DHT22;2994;51.220;4.412;2023-06-01T00:44:33;18.63;59.37
5938;DHT22;2994;51.220;4.412;2023-06-01T00:46:59;18.62;59.51
5938;DHT22;2994;51.220;4.412;2023-06-01T00:49:25;18.58;59.62
5938;DHT22;2994;51.220;4.412;2023-06-01T00:51:51;18.58;59.76
5938;DHT22;2994;51.220;4.412;2023-06-01T00:54:21;18.56;59.34
5938;DHT22;2994;51.220;4.412;2023-06-01T00:56:46;18.54;59.57
5938;DHT22;2994;51.220;4.412;2023-06-01T00:59:12;18.52;59.37
5938;DHT22;2994;51.220;4.412;2023-06-01T01:01:38;18.51;59.64
5938;DHT22;2994;51.220;4.412;2023-06-01T01:04:04;18.47;59.54
5938;DHT22;2994;51.220;4.412;2023-06-01T01:12:44;18.29;60.08
5938;DHT22;2994;51.220;4.412;2023-06-01T01:17:44;18.22;60.12
5938;DHT22;2994;51.220;4.412;2023-06-01T01:20:19;18.22;59.89
5938;DHT22;2994;51.220;4.412;2023-06-01T01:23:15;18.15;60.37
5938;DHT22;2994;51.220;4.412;2023-06-01T01:29:09;18.14;60.12
5938;DHT22;2994;51.220;4.412;2023-06-01T01:31:35;18.08;60.25
5938;DHT22;2994;51.220;4.412;2023-06-01T01:34:03;18.04;60.16
5938;DHT22;2994;51.220;4.412;2023-06-01T01:36:29;18.02;60.15
5938;DHT22;2994;51.220;4.412;2023-06-01T01:38:55;17.98;60.25
5938;DHT22;2994;51.220;4.412;2023-06-01T01:41:21;17.96;60.59
5938;DHT22;2994;51.220;4.412;2023-06-01T01:43:51;17.91;60.58
5938;DHT22;2994;51.220;4.412;2023-06-01T01:46:25;17.88;60.59
5938;DHT22;2994;51.220;4.412;2023-06-01T01:49:14;17.94;60.36
5938;DHT22;2994;51.220;4.412;2023-06-01T01:52:10;17.88;60.27
5938;DHT22;2994;51.220;4.412;2023-06-01T01:54:37;17.81;60.38
5938;DHT22;2994;51.220;4.412;2023-06-01T01:57:03;17.80;60.47
5938;DHT22;2994;51.220;4.412;2023-06-01T01:59:30;17.78;60.63
5938;DHT22;2994;51.220;4.412;2023-06-01T02:01:56;17.74;61.07
5938;DHT22;2994;51.220;4.412;2023-06-01T02:04:22;17.73;60.88
5938;DHT22;2994;51.220;4.412;2023-06-01T02:06:47;17.68;61.00
5938;DHT22;2994;51.220;4.412;2023-06-01T02:09:13;17.67;60.82
5938;DHT22;2994;51.220;4.412;2023-06-01T02:11:39;17.68;60.73
5938;DHT22;2994;51.220;4.412;2023-06-01T02:14:04;17.64;60.84
5938;DHT22;2994;51.220;4.412;2023-06-01T02:16:30;17.56;61.14
5938;DHT22;2994;51.220;4.412;2023-06-01T02:18:55;17.56;60.53
5938;DHT22;2994;51.220;4.412;2023-06-01T02:21:23;17.52;60.80
5938;DHT22;2994;51.220;4.412;2023-06-01T02:23:49;17.51;60.80
5938;DHT22;2994;51.220;4.412;2023-06-01T02:26:14;17.47;60.75
5938;DHT22;2994;51.220;4.412;2023-06-01T02:28:39;17.41;60.95
5938;DHT22;2994;51.220;4.412;2023-06-01T02:31:08;17.40;60.85
5938;DHT22;2994;51.220;4.412;2023-06-01T02:33:34;17.35;60.89
5938;DHT22;2994;51.220;4.412;2023-06-01T02:35:59;17.35;60.80
5938;DHT22;2994;51.220;4.412;2023-06-01T02:38:25;17.30;60.87
5938;DHT22;2994;51.220;4.412;2023-06-01T02:40:51;17.28;60.76
5938;DHT22;2994;51.220;4.412;2023-06-01T02:43:17;17.25;60.80
5938;DHT22;2994;51.220;4.412;2023-06-01T02:45:42;17.23;60.58
5938;DHT22;2994;51.220;4.412;2023-06-01T02:48:08;17.15;61.05
5938;DHT22;2994;51.220;4.412;2023-06-01T02:50:33;17.15;60.82
5938;DHT22;2994;51.220;4.412;2023-06-01T02:52:58;17.13;61.05
5938;DHT22;2994;51.220;4.412;2023-06-01T02:55:24;17.10;60.90
5938;DHT22;2994;51.220;4.412;2023-06-01T02:57:50;17.08;61.19
5938;DHT22;2994;51.220;4.412;2023-06-01T03:00:15;17.11;61.06
5938;DHT22;2994;51.220;4.412;2023-06-01T03:02:43;17.09;61.09
5938;DHT22;2994;51.220;4.412;2023-06-01T03:05:09;17.07;61.05
5938;DHT22;2994;51.220;4.412;2023-06-01T03:07:34;17.04;60.82
5938;DHT22;2994;51.220;4.412;2023-06-01T03:10:00;16.99;61.23
5938;DHT22;2994;51.220;4.412;2023-06-01T03:12:26;16.98;60.99
5938;DHT22;2994;51.220;4.412;2023-06-01T03:14:51;16.94;61.06
5938;DHT22;2994;51.220;4.412;2023-06-01T03:17:17;16.95;60.97
5938;DHT22;2994;51.220;4.412;2023-06-01T03:19:42;16.92;60.97
5938;DHT22;2994;51.220;4.412;2023-06-01T03:22:08;16.92;61.09
5938;DHT22;2994;51.220;4.412;2023-06-01T03:24:33;16.91;61.06
5938;DHT22;2994;51.220;4.412;2023-06-01T03:26:59;16.89;60.89
5938;DHT22;2994;51.220;4.412;2023-06-01T03:29:26;16.87;61.28
5938;DHT22;2994;51.220;4.412;2023-06-01T03:31:51;16.82;61.09
5938;DHT22;2994;51.220;4.412;2023-06-01T03:34:17;16.73;61.18
5938;DHT22;2994;51.220;4.412;2023-06-01T03:36:43;16.71;61.49
5938;DHT22;2994;51.220;4.412;2023-06-01T03:39:13;16.69;61.60
5938;DHT22;2994;51.220;4.412;2023-06-01T03:41:39;16.73;61.54
5938;DHT22;2994;51.220;4.412;2023-06-01T03:44:04;16.72;61.28
5938;DHT22;2994;51.220;4.412;2023-06-01T03:46:30;16.71;61.39
5938;DHT22;2994;51.220;4.412;2023-06-01T03:48:55;16.70;61.42
5938;DHT22;2994;51.220;4.412;2023-06-01T03:51:21;16.67;61.35
5938;DHT22;2994;51.220;4.412;2023-06-01T03:53:46;16.59;61.31
5938;DHT22;2994;51.220;4.412;2023-06-01T03:56:12;16.60;61.55
5938;DHT22;2994;51.220;4.412;2023-06-01T03:58:39;16.60;61.66
5938;DHT22;2994;51.220;4.412;2023-06-01T04:01:05;16.62;61.50
5938;DHT22;2994;51.220;4.412;2023-06-01T04:03:30;16.61;61.59
5938;DHT22;2994;51.220;4.412;2023-06-01T04:05:56;16.59;61.49
5938;DHT22;2994;51.220;4.412;2023-06-01T04:08:25;16.56;61.50
5938;DHT22;2994;51.220;4.412;2023-06-01T04:10:51;16.58;61.15
5938;DHT22;2994;51.220;4.412;2023-06-01T04:13:16;16.57;61.10
5938;DHT22;2994;51.220;4.412;2023-06-01T04:15:41;16.51;61.07
5938;DHT22;2994;51.220;4.412;2023-06-01T04:18:07;16.44;61.23
5938;DHT22;2994;51.220;4.412;2023-06-01T04:20:33;16.37;61.83
5938;DHT22;2994;51.220;4.412;2023-06-01T04:23:00;16.43;61.50
5938;DHT22;2994;51.220;4.412;2023-06-01T04:25:25;16.45;61.96
5938;DHT22;2994;51.220;4.412;2023-06-01T04:27:51;16.48;61.35
5938;DHT22;2994;51.220;4.412;2023-06-01T04:30:20;16.50;61.28
5938;DHT22;2994;51.220;4.412;2023-06-01T04:32:47;16.50;61.23
5938;DHT22;2994;51.220;4.412;2023-06-01T04:35:13;16.44;60.97
5938;DHT22;2994;51.220;4.412;2023-06-01T04:37:40;16.48;61.26
5938;DHT22;2994;51.220;4.412;2023-06-01T04:40:07;16.45;61.55
5938;DHT22;2994;51.220;4.412;2023-06-01T04:42:39;16.43;61.14
5938;DHT22;2994;51.220;4.412;2023-06-01T04:45:14;16.39;61.18
5938;DHT22;2994;51.220;4.412;2023-06-01T04:47:41;16.36;61.42
5938;DHT22;2994;51.220;4.412;2023-06-01T04:50:11;16.32;61.54
5938;DHT22;2994;51.220;4.412;2023-06-01T04:52:37;16.33;61.44
5938;DHT22;2994;51.220;4.412;2023-06-01T04:55:04;16.32;61.77
5938;DHT22;2994;51.220;4.412;2023-06-01T04:57:33;16.39;61.13
5938;DHT22;2994;51.220;4.412;2023-06-01T05:00:01;16.26;61.64
5938;DHT22;2994;51.220;4.412;2023-06-01T05:02:27;16.22;61.86
5938;DHT22;2994;51.220;4.412;2023-06-01T05:04:53;16.24;61.40
5938;DHT22;2994;51.220;4.412;2023-06-01T05:07:18;16.12;61.73
5938;DHT22;2994;51.220;4.412;2023-06-01T05:09:45;16.17;61.68
5938;DHT22;2994;51.220;4.412;2023-06-01T05:12:11;16.18;61.81
5938;DHT22;2994;51.220;4.412;2023-06-01T05:14:36;16.21;61.78
5938;DHT22;2994;51.220;4.412;2023-06-01T05:17:02;16.27;61.70
5938;DHT22;2994;51.220;4.412;2023-06-01T05:19:28;16.27;61.55
5938;DHT22;2994;51.220;4.412;2023-06-01T05:21:53;16.30;61.57
5938;DHT22;2994;51.220;4.412;2023-06-01T05:24:19;16.32;61.44
5938;DHT22;2994;51.220;4.412;2023-06-01T05:26:44;16.36;61.39
5938;DHT22;2994;51.220;4.412;2023-06-01T05:29:10;16.37;61.51
5938;DHT22;2994;51.220;4.412;2023-06-01T05:31:36;16.40;61.28
5938;DHT22;2994;51.220;4.412;2023-06-01T05:34:02;16.27;61.75
5938;DHT22;2994;51.220;4.412;2023-06-01T05:36:27;16.32;61.59
5938;DHT22;2994;51.220;4.412;2023-06-01T05:38:53;16.35;61.28
5938;DHT22;2994;51.220;4.412;2023-06-01T05:41:18;16.43;61.44
5938;DHT22;2994;51.220;4.412;2023-06-01T05:43:43;16.46;61.12
5938;DHT22;2994;51.220;4.412;2023-06-01T05:46:09;16.51;60.68
5938;DHT22;2994;51.220;4.412;2023-06-01T05:48:34;16.55;60.60
5938;DHT22;2994;51.220;4.412;2023-06-01T05:51:00;16.58;60.45
5938;DHT22;2994;51.220;4.412;2023-06-01T05:53:25;16.62;60.12
5938;DHT22;2994;51.220;4.412;2023-06-01T05:55:52;16.67;59.93
5938;DHT22;2994;51.220;4.412;2023-06-01T05:58:18;16.71;60.54
5938;DHT22;2994;51.220;4.412;2023-06-01T06:00:43;16.72;60.22
5938;DHT22;2994;51.220;4.412;2023-06-01T06:03:09;16.60;60.21
5938;DHT22;2994;51.220;4.412;2023-06-01T06:05:35;16.57;60.28
5938;DHT22;2994;51.220;4.412;2023-06-01T06:08:00;16.59;60.31
5938;DHT22;2994;51.220;4.412;2023-06-01T06:10:26;16.57;60.02
5938;DHT22;2994;51.220;4.412;2023-06-01T06:12:51;16.58;59.74
5938;DHT22;2994;51.220;4.412;2023-06-01T06:15:17;16.59;60.22
5938;DHT22;2994;51.220;4.412;2023-06-01T06:17:42;16.63;59.73
5938;DHT22;2994;51.220;4.412;2023-06-01T06:20:08;16.65;60.30
5938;DHT22;2994;51.220;4.412;2023-06-01T06:22:36;16.70;60.05
5938;DHT22;2994;51.220;4.412;2023-06-01T06:25:01;16.72;59.99
5938;DHT22;2994;51.220;4.412;2023-06-01T06:27:27;16.78;60.14
5938;DHT22;2994;51.220;4.412;2023-06-01T06:29:52;16.85;59.19
5938;DHT22;2994;51.220;4.412;2023-06-01T06:32:18;16.86;59.12
5938;DHT22;2994;51.220;4.412;2023-06-01T06:34:45;16.90;59.54
5938;DHT22;2994;51.220;4.412;2023-06-01T06:37:10;16.98;58.65
5938;DHT22;2994;51.220;4.412;2023-06-01T06:39:36;17.03;58.85
5938;DHT22;2994;51.220;4.412;2023-06-01T06:42:03;17.02;58.35
5938;DHT22;2994;51.220;4.412;2023-06-01T06:44:29;17.04;58.35
5938;DHT22;2994;51.220;4.412;2023-06-01T06:46:54;17.06;58.24
5938;DHT22;2994;51.220;4.412;2023-06-01T06:49:20;17.08;58.24
5938;DHT22;2994;51.220;4.412;2023-06-01T06:51:45;17.13;58.60
5938;DHT22;2994;51.220;4.412;2023-06-01T06:54:11;17.15;58.25
5938;DHT22;2994;51.220;4.412;2023-06-01T06:56:37;17.19;57.13
5938;DHT22;2994;51.220;4.412;2023-06-01T06:59:02;17.19;57.13
5938;DHT22;2994;51.220;4.412;2023-06-01T07:01:28;17.15;57.04
5938;DHT22;2994;51.220;4.412;2023-06-01T07:03:54;17.22;56.67
5938;DHT22;2994;51.220;4.412;2023-06-01T07:06:21;17.24;57.33
5938;DHT22;2994;51.220;4.412;2023-06-01T07:08:48;17.28;56.85
5938;DHT22;2994;51.220;4.412;2023-06-01T07:11:13;17.34;56.19
5938;DHT22;2994;51.220;4.412;2023-06-01T07:13:39;17.36;56.90
5938;DHT22;2994;51.220;4.412;2023-06-01T07:16:05;17.35;56.95
5938;DHT22;2994;51.220;4.412;2023-06-01T07:18:30;17.40;56.93
5938;DHT22;2994;51.220;4.412;2023-06-01T07:20:57;17.45;56.68
5938;DHT22;2994;51.220;4.412;2023-06-01T07:23:23;17.52;56.10
5938;DHT22;2994;51.220;4.412;2023-06-01T07:25:48;17.53;55.82
5938;DHT22;2994;51.220;4.412;2023-06-01T07:31:04;17.61;55.69
5938;DHT22;2994;51.220;4.412;2023-06-01T07:33:30;17.68;55.94
5938;DHT22;2994;51.220;4.412;2023-06-01T07:35:56;17.75;55.23
5938;DHT22;2994;51.220;4.412;2023-06-01T07:38:23;17.80;54.68
5938;DHT22;2994;51.220;4.412;2023-06-01T07:40:51;17.83;54.87
5938;DHT22;2994;51.220;4.412;2023-06-01T07:43:17;17.93;54.39
5938;DHT22;2994;51.220;4.412;2023-06-01T07:45:42;17.99;54.20
5938;DHT22;2994;51.220;4.412;2023-06-01T07:48:08;18.08;53.33
5938;DHT22;2994;51.220;4.412;2023-06-01T07:50:33;18.11;53.70
5938;DHT22;2994;51.220;4.412;2023-06-01T07:52:59;18.19;53.48
5938;DHT22;2994;51.220;4.412;2023-06-01T07:55:25;18.27;54.60
5938;DHT22;2994;51.220;4.412;2023-06-01T07:57:51;18.36;53.33
5938;DHT22;2994;51.220;4.412;2023-06-01T08:00:17;18.47;54.04
5938;DHT22;2994;51.220;4.412;2023-06-01T08:02:44;18.49;53.89
5938;DHT22;2994;51.220;4.412;2023-06-01T08:05:10;18.62;52.52
5938;DHT22;2994;51.220;4.412;2023-06-01T08:07:37;18.68;52.39
5938;DHT22;2994;51.220;4.412;2023-06-01T08:10:04;18.77;52.14
5938;DHT22;2994;51.220;4.412;2023-06-01T08:12:31;18.83;51.72
5938;DHT22;2994;51.220;4.412;2023-06-01T08:14:57;18.96;51.30
5938;DHT22;2994;51.220;4.412;2023-06-01T08:17:24;18.97;51.16
5938;DHT22;2994;51.220;4.412;2023-06-01T08:19:49;19.09;52.17
5938;DHT22;2994;51.220;4.412;2023-06-01T08:22:16;19.11;51.04
5938;DHT22;2994;51.220;4.412;2023-06-01T08:24:41;19.25;51.14
5938;DHT22;2994;51.220;4.412;2023-06-01T08:27:36;19.35;50.93
5938;DHT22;2994;51.220;4.412;2023-06-01T08:30:02;19.43;51.08
5938;DHT22;2994;51.220;4.412;2023-06-01T08:32:29;19.55;50.40
5938;DHT22;2994;51.220;4.412;2023-06-01T08:34:55;19.69;51.35
5938;DHT22;2994;51.220;4.412;2023-06-01T08:37:20;19.76;50.45
5938;DHT22;2994;51.220;4.412;2023-06-01T08:39:46;19.84;50.80
5938;DHT22;2994;51.220;4.412;2023-06-01T08:42:25;19.97;48.78
5938;DHT22;2994;51.220;4.412;2023-06-01T08:44:57;19.96;48.86
5938;DHT22;2994;51.220;4.412;2023-06-01T08:47:24;20.00;49.51
5938;DHT22;2994;51.220;4.412;2023-06-01T08:49:51;20.10;50.11
5938;DHT22;2994;51.220;4.412;2023-06-01T08:52:21;20.14;49.02
5938;DHT22;2994;51.220;4.412;2023-06-01T08:54:47;20.20;48.35
5938;DHT22;2994;51.220;4.412;2023-06-01T08:57:13;20.24;49.55
5938;DHT22;2994;51.220;4.412;2023-06-01T08:59:39;20.33;49.17
5938;DHT22;2994;51.220;4.412;2023-06-01T09:02:05;20.44;48.26
5938;DHT22;2994;51.220;4.412;2023-06-01T09:04:35;20.53;48.95
5938;DHT22;2994;51.220;4.412;2023-06-01T09:07:03;20.48;48.13
5938;DHT22;2994;51.220;4.412;2023-06-01T09:09:29;20.57;47.57
5938;DHT22;2994;51.220;4.412;2023-06-01T09:12:15;20.69;47.66
5938;DHT22;2994;51.220;4.412;2023-06-01T09:14:41;20.70;46.68
5938;DHT22;2994;51.220;4.412;2023-06-01T09:17:13;20.73;47.41
5938;DHT22;2994;51.220;4.412;2023-06-01T09:19:44;20.85;47.65
5938;DHT22;2994;51.220;4.412;2023-06-01T09:22:11;20.92;46.31
5938;DHT22;2994;51.220;4.412;2023-06-01T09:24:37;20.95;46.34
5938;DHT22;2994;51.220;4.412;2023-06-01T09:27:03;21.05;46.45
5938;DHT22;2994;51.220;4.412;2023-06-01T09:29:29;21.16;46.16
5938;DHT22;2994;51.220;4.412;2023-06-01T09:31:55;21.22;45.00
5938;DHT22;2994;51.220;4.412;2023-06-01T09:34:22;21.22;44.06
5938;DHT22;2994;51.220;4.412;2023-06-01T09:36:50;21.23;45.61
5938;DHT22;2994;51.220;4.412;2023-06-01T09:39:18;21.45;45.35
5938;DHT22;2994;51.220;4.412;2023-06-01T09:41:58;21.55;45.57
5938;DHT22;2994;51.220;4.412;2023-06-01T09:46:54;21.80;45.84
5938;DHT22;2994;51.220;4.412;2023-06-01T09:49:25;21.82;45.67
5938;DHT22;2994;51.220;4.412;2023-06-01T09:52:13;21.92;43.93
5938;DHT22;2994;51.220;4.412;2023-06-01T09:54:45;22.07;45.03
5938;DHT22;2994;51.220;4.412;2023-06-01T09:57:12;22.14;44.59
5938;DHT22;2994;51.220;4.412;2023-06-01T09:59:46;22.26;45.03
5938;DHT22;2994;51.220;4.412;2023-06-01T10:02:14;22.35;44.68
5938;DHT22;2994;51.220;4.412;2023-06-01T10:04:44;22.36;43.92
5938;DHT22;2994;51.220;4.412;2023-06-01T10:07:13;22.33;43.26
5938;DHT22;2994;51.220;4.412;2023-06-01T10:09:41;22.46;44.17
5938;DHT22;2994;51.220;4.412;2023-06-01T10:12:07;22.46;42.97
5938;DHT22;2994;51.220;4.412;2023-06-01T10:14:36;22.53;43.71
5938;DHT22;2994;51.220;4.412;2023-06-01T10:17:03;22.66;43.39
5938;DHT22;2994;51.220;4.412;2023-06-01T10:19:29;22.70;44.29
5938;DHT22;2994;51.220;4.412;2023-06-01T10:21:57;22.65;44.58
5938;DHT22;2994;51.220;4.412;2023-06-01T10:24:23;22.55;43.46
5938;DHT22;2994;51.220;4.412;2023-06-01T10:27:01;22.79;41.86
5938;DHT22;2994;51.220;4.412;2023-06-01T10:29:31;22.62;44.57
5938;DHT22;2994;51.220;4.412;2023-06-01T10:31:57;22.73;43.35
5938;DHT22;2994;51.220;4.412;2023-06-01T10:34:43;22.90;42.93
5938;DHT22;2994;51.220;4.412;2023-06-01T10:37:14;22.58;44.64
5938;DHT22;2994;51.220;4.412;2023-06-01T10:39:40;23.05;44.54
5938;DHT22;2994;51.220;4.412;2023-06-01T10:47:06;22.68;42.01
5938;DHT22;2994;51.220;4.412;2023-06-01T10:52:27;23.00;42.03
5938;DHT22;2994;51.220;4.412;2023-06-01T10:54:54;22.82;43.19
5938;DHT22;2994;51.220;4.412;2023-06-01T10:57:25;22.99;43.10
5938;DHT22;2994;51.220;4.412;2023-06-01T11:00:10;23.17;40.42
5938;DHT22;2994;51.220;4.412;2023-06-01T11:08:07;23.59;39.36
5938;DHT22;2994;51.220;4.412;2023-06-01T11:13:31;23.59;39.09
5938;DHT22;2994;51.220;4.412;2023-06-01T11:21:20;23.42;42.23
5938;DHT22;2994;51.220;4.412;2023-06-01T11:23:52;23.59;41.09
5938;DHT22;2994;51.220;4.412;2023-06-01T11:26:21;23.61;40.65
5938;DHT22;2994;51.220;4.412;2023-06-01T11:28:48;23.76;40.21
5938;DHT22;2994;51.220;4.412;2023-06-01T11:31:18;23.91;40.10
5938;DHT22;2994;51.220;4.412;2023-06-01T11:33:52;24.00;39.23
5938;DHT22;2994;51.220;4.412;2023-06-01T11:36:19;23.68;42.45
5938;DHT22;2994;51.220;4.412;2023-06-01T11:38:45;23.95;39.97
5938;DHT22;2994;51.220;4.412;2023-06-01T11:41:11;24.15;38.59
5938;DHT22;2994;51.220;4.412;2023-06-01T11:43:36;24.25;38.16
5938;DHT22;2994;51.220;4.412;2023-06-01T11:46:08;24.30;36.26
5938;DHT22;2994;51.220;4.412;2023-06-01T11:48:37;24.31;39.52
5938;DHT22;2994;51.220;4.412;2023-06-01T11:51:03;24.44;39.70
5938;DHT22;2994;51.220;4.412;2023-06-01T11:53:30;24.40;37.67
5938;DHT22;2994;51.220;4.412;2023-06-01T11:55:58;24.48;38.64
5938;DHT22;2994;51.220;4.412;2023-06-01T11:58:28;24.35;38.74
5938;DHT22;2994;51.220;4.412;2023-06-01T12:00:54;24.61;37.24
5938;DHT22;2994;51.220;4.412;2023-06-01T12:03:20;24.90;38.28
5938;DHT22;2994;51.220;4.412;2023-06-01T12:05:46;25.21;35.81
5938;DHT22;2994;51.220;4.412;2023-06-01T12:08:20;24.76;35.57
5938;DHT22;2994;51.220;4.412;2023-06-01T12:10:47;25.28;35.52
5938;DHT22;2994;51.220;4.412;2023-06-01T12:13:14;25.16;37.26
5938;DHT22;2994;51.220;4.412;2023-06-01T12:15:40;25.32;36.46
5938;DHT22;2994;51.220;4.412;2023-06-01T12:18:06;25.19;37.91
5938;DHT22;2994;51.220;4.412;2023-06-01T12:20:37;25.31;35.14
5938;DHT22;2994;51.220;4.412;2023-06-01T12:23:17;25.80;34.31
5938;DHT22;2994;51.220;4.412;2023-06-01T12:25:52;25.78;34.91
5938;DHT22;2994;51.220;4.412;2023-06-01T12:28:19;26.10;36.07
5938;DHT22;2994;51.220;4.412;2023-06-01T12:30:45;26.24;35.85
5938;DHT22;2994;51.220;4.412;2023-06-01T12:33:31;26.17;35.87
5938;DHT22;2994;51.220;4.412;2023-06-01T12:38:28;26.75;33.31
5938;DHT22;2994;51.220;4.412;2023-06-01T12:41:10;27.05;31.86
5938;DHT22;2994;51.220;4.412;2023-06-01T12:43:37;27.05;33.03
5938;DHT22;2994;51.220;4.412;2023-06-01T12:46:03;27.21;33.34
5938;DHT22;2994;51.220;4.412;2023-06-01T12:48:33;26.90;34.22
5938;DHT22;2994;51.220;4.412;2023-06-01T12:50:59;27.10;33.58
5938;DHT22;2994;51.220;4.412;2023-06-01T12:53:26;27.00;34.25
5938;DHT22;2994;51.220;4.412;2023-06-01T12:55:51;27.27;31.77
5938;DHT22;2994;51.220;4.412;2023-06-01T12:58:17;27.53;32.31
5938;DHT22;2994;51.220;4.412;2023-06-01T13:00:42;27.47;32.92
5938;DHT22;2994;51.220;4.412;2023-06-01T13:03:08;27.84;30.53
5938;DHT22;2994;51.220;4.412;2023-06-01T13:05:33;27.91;29.76
5938;DHT22;2994;51.220;4.412;2023-06-01T13:07:59;28.02;30.78
5938;DHT22;2994;51.220;4.412;2023-06-01T13:10:25;28.13;30.41
5938;DHT22;2994;51.220;4.412;2023-06-01T13:12:51;28.03;29.17
5938;DHT22;2994;51.220;4.412;2023-06-01T13:15:17;28.12;29.70
5938;DHT22;2994;51.220;4.412;2023-06-01T13:17:43;28.37;30.28
5938;DHT22;2994;51.220;4.412;2023-06-01T13:20:09;28.24;31.22
5938;DHT22;2994;51.220;4.412;2023-06-01T13:22:37;28.14;30.88
5938;DHT22;2994;51.220;4.412;2023-06-01T13:25:03;28.08;29.22
5938;DHT22;2994;51.220;4.412;2023-06-01T13:27:30;28.27;28.93
5938;DHT22;2994;51.220;4.412;2023-06-01T13:29:56;28.12;28.33
5938;DHT22;2994;51.220;4.412;2023-06-01T13:32:22;28.41;28.03
5938;DHT22;2994;51.220;4.412;2023-06-01T13:34:47;28.30;29.54
5938;DHT22;2994;51.220;4.412;2023-06-01T13:37:13;28.44;27.49
5938;DHT22;2994;51.220;4.412;2023-06-01T13:39:38;28.06;30.49
5938;DHT22;2994;51.220;4.412;2023-06-01T13:42:04;28.65;28.19
5938;DHT22;2994;51.220;4.412;2023-06-01T13:44:32;28.68;29.74
5938;DHT22;2994;51.220;4.412;2023-06-01T13:46:58;28.64;29.59
5938;DHT22;2994;51.220;4.412;2023-06-01T13:49:23;28.98;28.64
5938;DHT22;2994;51.220;4.412;2023-06-01T13:51:49;29.04;26.59
5938;DHT22;2994;51.220;4.412;2023-06-01T13:54:14;29.05;26.26
5938;DHT22;2994;51.220;4.412;2023-06-01T13:56:40;29.08;27.56
5938;DHT22;2994;51.220;4.412;2023-06-01T13:59:05;29.21;27.65
5938;DHT22;2994;51.220;4.412;2023-06-01T14:01:31;29.06;27.78
5938;DHT22;2994;51.220;4.412;2023-06-01T14:03:56;28.80;28.14
5938;DHT22;2994;51.220;4.412;2023-06-01T14:06:22;29.14;26.88
5938;DHT22;2994;51.220;4.412;2023-06-01T14:08:47;29.33;27.13
5938;DHT22;2994;51.220;4.412;2023-06-01T14:11:14;29.47;27.49
5938;DHT22;2994;51.220;4.412;2023-06-01T14:13:39;29.15;28.61
5938;DHT22;2994;51.220;4.412;2023-06-01T14:16:05;29.37;28.46
5938;DHT22;2994;51.220;4.412;2023-06-01T14:18:30;29.61;26.26
5938;DHT22;2994;51.220;4.412;2023-06-01T14:20:56;29.58;28.04
5938;DHT22;2994;51.220;4.412;2023-06-01T14:23:22;29.70;27.33
5938;DHT22;2994;51.220;4.412;2023-06-01T14:25:47;29.85;26.01
5938;DHT22;2994;51.220;4.412;2023-06-01T14:28:13;29.95;27.10
5938;DHT22;2994;51.220;4.412;2023-06-01T14:30:38;29.90;26.65
5938;DHT22;2994;51.220;4.412;2023-06-01T14:33:04;29.98;26.07
5938;DHT22;2994;51.220;4.412;2023-06-01T14:35:30;30.15;27.02
5938;DHT22;2994;51.220;4.412;2023-06-01T14:37:55;30.18;26.72
5938;DHT22;2994;51.220;4.412;2023-06-01T14:40:21;30.33;26.89
5938;DHT22;2994;51.220;4.412;2023-06-01T14:42:46;30.40;26.50
5938;DHT22;2994;51.220;4.412;2023-06-01T14:45:12;30.45;27.08
5938;DHT22;2994;51.220;4.412;2023-06-01T14:47:38;30.41;24.98
5938;DHT22;2994;51.220;4.412;2023-06-01T14:50:07;30.57;26.27
5938;DHT22;2994;51.220;4.412;2023-06-01T14:52:33;30.65;25.97
5938;DHT22;2994;51.220;4.412;2023-06-01T14:54:58;30.49;26.87
5938;DHT22;2994;51.220;4.412;2023-06-01T14:57:23;30.61;24.85
5938;DHT22;2994;51.220;4.412;2023-06-01T14:59:49;30.66;25.15
5938;DHT22;2994;51.220;4.412;2023-06-01T15:02:14;30.77;25.82
5938;DHT22;2994;51.220;4.412;2023-06-01T15:04:40;30.89;26.38
5938;DHT22;2994;51.220;4.412;2023-06-01T15:07:05;30.78;25.62
5938;DHT22;2994;51.220;4.412;2023-06-01T15:09:31;31.09;25.45
5938;DHT22;2994;51.220;4.412;2023-06-01T15:11:57;31.29;25.57
5938;DHT22;2994;51.220;4.412;2023-06-01T15:14:22;31.61;25.58
5938;DHT22;2994;51.220;4.412;2023-06-01T15:16:48;32.10;23.38
5938;DHT22;2994;51.220;4.412;2023-06-01T15:19:14;32.77;23.57
5938;DHT22;2994;51.220;4.412;2023-06-01T15:21:40;35.84;21.37
5938;DHT22;2994;51.220;4.412;2023-06-01T15:24:05;40.55;15.87
5938;DHT22;2994;51.220;4.412;2023-06-01T15:26:31;43.99;12.10
5938;DHT22;2994;51.220;4.412;2023-06-01T15:28:56;46.32;11.11
5938;DHT22;2994;51.220;4.412;2023-06-01T15:31:22;48.12;9.60
5938;DHT22;2994;51.220;4.412;2023-06-01T15:33:48;49.83;7.80
5938;DHT22;2994;51.220;4.412;2023-06-01T15:36:13;51.12;6.80
5938;DHT22;2994;51.220;4.412;2023-06-01T15:38:40;52.21;6.28
5938;DHT22;2994;51.220;4.412;2023-06-01T15:41:06;52.88;4.30
5938;DHT22;2994;51.220;4.412;2023-06-01T15:43:35;53.53;5.06
5938;DHT22;2994;51.220;4.412;2023-06-01T15:46:02;54.32;4.47
5938;DHT22;2994;51.220;4.412;2023-06-01T15:48:27;55.18;4.28
5938;DHT22;2994;51.220;4.412;2023-06-01T15:50:53;56.09;3.44
5938;DHT22;2994;51.220;4.412;2023-06-01T15:53:18;56.16;2.25
5938;DHT22;2994;51.220;4.412;2023-06-01T15:55:44;53.08;2.56
5938;DHT22;2994;51.220;4.412;2023-06-01T15:58:11;48.50;4.92
5938;DHT22;2994;51.220;4.412;2023-06-01T16:00:36;45.15;7.29
5938;DHT22;2994;51.220;4.412;2023-06-01T16:03:02;42.65;8.81
5938;DHT22;2994;51.220;4.412;2023-06-01T16:05:27;40.58;11.16
5938;DHT22;2994;51.220;4.412;2023-06-01T16:07:53;38.86;13.30
5938;DHT22;2994;51.220;4.412;2023-06-01T16:10:18;37.32;14.67
5938;DHT22;2994;51.220;4.412;2023-06-01T16:12:44;36.00;16.75
5938;DHT22;2994;51.220;4.412;2023-06-01T16:15:10;34.88;17.76
5938;DHT22;2994;51.220;4.412;2023-06-01T16:17:35;33.92;19.16
5938;DHT22;2994;51.220;4.412;2023-06-01T16:20:01;33.05;21.08
5938;DHT22;2994;51.220;4.412;2023-06-01T16:22:27;32.38;21.97
5938;DHT22;2994;51.220;4.412;2023-06-01T16:24:52;31.72;23.28
5938;DHT22;2994;51.220;4.412;2023-06-01T16:27:18;30.96;24.99
5938;DHT22;2994;51.220;4.412;2023-06-01T16:29:43;30.47;25.85
5938;DHT22;2994;51.220;4.412;2023-06-01T16:32:09;29.88;27.11
5938;DHT22;2994;51.220;4.412;2023-06-01T16:34:34;29.53;28.01
5938;DHT22;2994;51.220;4.412;2023-06-01T16:37:00;28.75;29.74
5938;DHT22;2994;51.220;4.412;2023-06-01T16:39:25;28.43;30.24
5938;DHT22;2994;51.220;4.412;2023-06-01T16:41:51;28.15;30.63